Time;durP1;ratioP1;P1;durP2;ratioP2;P2;SDS_P1;SDS_P2;PMS_P1;PMS_P2;Temp;Humidity;BMP_temperature;BMP_pressure;BME280_temperature;BME280_humidity;BME280_pressure;Samples;Min_cycle;Max_cycle;Signal;HPM_P1;HPM_P2
2021/10/25 00:03:04;;;;;;;21.33;19.53;;;4.50;99.90;;;;;;4993774;28;20656;-96
2021/10/25 00:05:38;;;;;;;23.77;21.50;;;4.50;99.90;;;;;;5006048;28;20655;-95
2021/10/25 00:08:10;;;;;;;21.67;19.87;;;4.30;99.90;;;;;;4983988;28;20636;-95
2021/10/25 00:10:40;;;;;;;22.10;20.50;;;4.40;99.90;;;;;;4991980;28;20671;-95
2021/10/25 00:13:11;;;;;;;22.80;21.10;;;4.30;99.90;;;;;;4999741;28;20593;-95
2021/10/25 00:15:42;;;;;;;22.03;20.33;;;4.30;99.90;;;;;;5001850;28;20664;-94
2021/10/25 00:18:24;;;;;;;21.80;20.00;;;4.10;99.90;;;;;;5002124;28;21033;-94
2021/10/25 00:20:52;;;;;;;22.20;20.50;;;4.20;99.90;;;;;;4997254;28;20732;-94
2021/10/25 00:23:29;;;;;;;22.57;20.87;;;4.20;99.90;;;;;;5000882;28;20660;-94
2021/10/25 00:25:58;;;;;;;23.37;21.57;;;4.10;99.90;;;;;;4999682;28;20709;-94
2021/10/25 00:28:39;;;;;;;22.40;20.57;;;4.20;99.90;;;;;;4997470;28;20636;-95
2021/10/25 00:31:41;;;;;;;23.17;21.43;;;4.30;99.90;;;;;;5003844;28;20634;-94
2021/10/25 00:34:27;;;;;;;20.57;18.87;;;4.10;99.90;;;;;;4997169;28;20712;-94
2021/10/25 00:37:17;;;;;;;22.00;20.10;;;4.20;99.90;;;;;;4988626;28;20637;-95
2021/10/25 05:29:16;;;;;;;18.47;16.73;;;3.40;99.90;;;;;;4999997;28;20669;-95
2021/10/25 05:31:45;;;;;;;21.20;19.50;;;3.30;99.90;;;;;;5004147;28;20702;-95
2021/10/25 05:34:13;;;;;;;35.10;32.37;;;3.30;99.90;;;;;;5000390;28;20703;-96
2021/10/25 05:36:43;;;;;;;26.90;24.70;;;3.30;99.90;;;;;;4994015;28;20644;-96
2021/10/25 05:39:13;;;;;;;24.53;22.63;;;3.30;99.90;;;;;;4962334;28;20716;-96
2021/10/25 05:41:44;;;;;;;21.37;19.67;;;3.30;99.90;;;;;;4974077;28;20692;-95
2021/10/25 05:44:11;;;;;;;20.70;19.00;;;3.20;99.90;;;;;;4963640;28;20646;-96
2021/10/25 05:46:39;;;;;;;20.90;19.30;;;3.30;99.90;;;;;;4966827;28;21406;-96
2021/10/25 05:49:14;;;;;;;20.63;18.93;;;3.30;99.90;;;;;;4962390;28;20705;-95
2021/10/25 05:51:44;;;;;;;19.23;17.77;;;3.40;99.90;;;;;;4968463;28;20681;-95
2021/10/25 05:54:18;;;;;;;18.87;17.57;;;3.40;99.90;;;;;;4971037;28;20642;-96
2021/10/25 05:56:48;;;;;;;19.47;17.80;;;3.30;99.90;;;;;;4968752;28;20613;-95
2021/10/25 06:40:42;;;;;;;19.93;18.40;;;3.70;99.90;;;;;;5008071;28;20577;-96
2021/10/25 06:43:27;;;;;;;19.63;18.00;;;3.80;99.90;;;;;;4998098;28;20625;-94
2021/10/25 06:46:17;;;;;;;20.77;19.10;;;3.80;99.90;;;;;;4993603;28;20681;-96
2021/10/25 06:49:02;;;;;;;17.70;16.37;;;3.80;99.90;;;;;;4973259;28;20701;-95
2021/10/25 06:51:45;;;;;;;18.90;17.50;;;3.70;99.90;;;;;;4949269;28;20641;-95
2021/10/25 06:54:14;;;;;;;18.93;17.43;;;3.70;99.90;;;;;;4979959;28;20634;-96
2021/10/25 06:56:52;;;;;;;19.10;17.50;;;3.80;99.90;;;;;;4967799;28;20661;-96
2021/10/25 06:59:32;;;;;;;18.80;17.20;;;3.70;99.90;;;;;;4965728;28;20624;-96
2021/10/25 07:02:06;;;;;;;20.50;19.00;;;3.90;99.90;;;;;;4962076;28;20695;-95
2021/10/25 07:04:33;;;;;;;20.43;18.73;;;3.90;99.90;;;;;;4958669;28;20633;-95
2021/10/25 07:07:02;;;;;;;20.23;18.63;;;4.00;99.90;;;;;;4974335;28;20649;-95
2021/10/25 07:09:34;;;;;;;21.40;19.70;;;4.10;99.90;;;;;;4981685;28;20641;-95
2021/10/25 07:12:02;;;;;;;21.67;19.83;;;4.10;99.90;;;;;;4975531;28;20648;-93
2021/10/25 07:14:34;;;;;;;20.13;18.40;;;4.20;99.90;;;;;;4957590;28;20634;-94
2021/10/25 07:17:17;;;;;;;22.00;18.60;;;4.30;99.90;;;;;;4957738;28;20649;-94
2021/10/25 08:07:39;;;;;;;18.33;16.43;;;7.10;99.90;;;;;;4970198;28;20730;-95
2021/10/25 08:10:11;;;;;;;18.00;16.60;;;7.30;99.90;;;;;;4982632;28;20624;-92
2021/10/25 08:12:49;;;;;;;16.03;14.73;;;7.50;99.90;;;;;;4982408;28;20659;-94
2021/10/25 08:15:23;;;;;;;16.03;14.53;;;7.70;99.90;;;;;;4986644;28;20665;-94
2021/10/25 08:17:58;;;;;;;17.00;15.50;;;7.80;99.90;;;;;;4985371;28;20766;-94
2021/10/25 08:20:26;;;;;;;15.27;13.97;;;7.90;99.90;;;;;;5177098;23;20779;-94
2021/10/25 08:22:57;;;;;;;14.93;13.67;;;7.90;99.90;;;;;;4998724;28;20999;-95
2021/10/25 08:25:24;;;;;;;13.67;12.33;;;7.90;99.90;;;;;;4991329;28;20719;-94
2021/10/25 08:27:55;;;;;;;14.53;13.07;;;8.00;99.90;;;;;;5000859;28;20960;-94
2021/10/25 08:30:23;;;;;;;14.23;12.70;;;8.20;99.90;;;;;;4999758;28;20683;-95
2021/10/25 08:33:26;;;;;;;14.37;12.93;;;8.30;99.90;;;;;;4988854;28;21087;-94
2021/10/25 08:36:12;;;;;;;16.40;14.73;;;8.50;99.90;;;;;;4977000;28;20664;-95
2021/10/25 08:41:29;;;;;;;14.47;13.27;;;8.40;99.90;;;;;;4973222;28;20652;-95
2021/10/25 08:43:59;;;;;;;12.20;11.13;;;8.30;99.90;;;;;;4982777;28;20653;-95
2021/10/25 08:46:30;;;;;;;12.00;10.80;;;8.40;99.90;;;;;;4989032;28;20628;-94
2021/10/25 08:49:03;;;;;;;14.37;12.90;;;8.40;99.90;;;;;;4988014;28;20645;-95
2021/10/25 08:51:48;;;;;;;12.97;11.90;;;8.50;99.90;;;;;;4988596;28;20665;-95
2021/10/25 08:54:18;;;;;;;11.90;11.00;;;8.60;99.90;;;;;;4990219;28;20731;-95
2021/10/25 08:56:49;;;;;;;12.40;11.47;;;8.60;99.90;;;;;;4998434;28;20661;-94
2021/10/25 08:59:23;;;;;;;11.53;10.57;;;8.50;99.90;;;;;;4983860;28;20661;-92
2021/10/25 09:02:18;;;;;;;11.77;10.73;;;8.60;99.90;;;;;;4991262;28;21439;-96
2021/10/25 09:04:59;;;;;;;12.33;11.27;;;8.80;99.90;;;;;;4981064;28;20713;-95
2021/10/25 09:07:51;;;;;;;12.70;11.60;;;8.70;99.90;;;;;;4997708;28;20687;-96
2021/10/25 09:10:27;;;;;;;13.23;11.40;;;8.80;99.90;;;;;;4985020;28;20688;-96
2021/10/25 09:18:39;;;;;;;11.10;10.20;;;9.00;99.90;;;;;;4982362;28;21057;-94
2021/10/25 09:27:52;;;;;;;11.50;10.50;;;9.10;99.90;;;;;;4996130;28;20632;-94
2021/10/25 09:33:42;;;;;;;10.70;9.60;;;9.40;99.90;;;;;;4985512;28;20954;-93
2021/10/25 09:36:14;;;;;;;11.83;10.73;;;9.50;99.90;;;;;;4988246;28;20657;-94
2021/10/25 09:42:10;;;;;;;11.00;9.90;;;9.90;99.90;;;;;;4996859;28;20624;-94
2021/10/25 09:51:17;;;;;;;11.37;10.40;;;10.40;99.90;;;;;;5001020;28;20564;-94
2021/10/25 09:54:01;;;;;;;10.23;9.43;;;10.50;99.90;;;;;;4994729;28;20730;-94
2021/10/25 09:56:32;;;;;;;11.07;10.17;;;10.40;99.90;;;;;;5006949;28;20665;-94
2021/10/25 09:59:10;;;;;;;10.13;9.20;;;10.60;99.90;;;;;;5009405;28;20700;-94
2021/10/25 10:01:46;;;;;;;11.10;10.03;;;10.90;99.90;;;;;;5006071;28;20628;-94
2021/10/25 10:04:14;;;;;;;12.13;11.00;;;11.00;99.90;;;;;;5010054;28;20641;-94
2021/10/25 10:07:22;;;;;;;11.10;10.20;;;11.50;99.90;;;;;;5002645;28;20616;-94
2021/10/25 10:12:55;;;;;;;9.50;8.70;;;12.40;99.90;;;;;;5007784;28;20613;-96
2021/10/25 10:24:35;;;;;;;8.17;7.47;;;13.60;99.90;;;;;;5568406;23;20679;-96
2021/10/25 10:29:53;;;;;;;7.40;6.70;;;13.60;99.90;;;;;;5027936;28;20607;-94
2021/10/25 10:32:30;;;;;;;8.33;7.50;;;13.40;99.90;;;;;;5104504;23;20681;-95
2021/10/25 10:35:07;;;;;;;8.77;7.50;;;13.20;99.90;;;;;;5007751;28;20621;-95
2021/10/25 10:38:00;;;;;;;9.13;8.23;;;12.90;99.90;;;;;;5007204;28;20661;-94
2021/10/25 10:40:37;;;;;;;8.73;7.83;;;13.00;99.90;;;;;;5012484;28;20627;-94
2021/10/25 10:43:20;;;;;;;8.00;7.30;;;13.10;99.90;;;;;;5001045;28;20605;-94
2021/10/25 10:46:02;;;;;;;7.33;6.73;;;12.90;99.90;;;;;;5001765;28;20655;-94
2021/10/25 10:48:32;;;;;;;14.70;10.50;;;13.00;99.90;;;;;;5009911;28;20609;-94
2021/10/25 10:51:04;;;;;;;8.67;7.77;;;13.00;99.90;;;;;;5012209;28;20716;-94
2021/10/25 10:53:33;;;;;;;8.63;6.93;;;12.80;99.90;;;;;;5002961;28;20621;-96
2021/10/25 10:56:36;;;;;;;7.87;7.07;;;12.80;99.90;;;;;;5004909;28;20636;-95
2021/10/25 10:59:30;;;;;;;6.97;6.47;;;12.80;99.90;;;;;;4999498;28;20634;-95
2021/10/25 11:02:06;;;;;;;7.67;6.50;;;12.90;99.90;;;;;;5000832;28;20653;-93
2021/10/25 11:04:36;;;;;;;11.40;7.00;;;12.90;99.90;;;;;;5007681;28;20643;-95
2021/10/25 11:07:06;;;;;;;8.13;7.43;;;13.10;99.90;;;;;;5006937;28;20628;-94
2021/10/25 11:09:40;;;;;;;7.20;6.60;;;13.70;99.90;;;;;;5003905;28;20625;-95
2021/10/25 11:12:12;;;;;;;7.40;6.80;;;14.30;99.90;;;;;;5004761;28;21103;-94
2021/10/25 11:14:48;;;;;;;7.87;6.50;;;15.10;99.90;;;;;;4998024;28;20634;-94
2021/10/25 11:17:25;;;;;;;6.60;6.00;;;15.50;99.90;;;;;;5003194;28;20740;-95
2021/10/25 11:19:55;;;;;;;5.90;5.40;;;15.80;99.90;;;;;;5002501;28;20624;-94
2021/10/25 11:22:33;;;;;;;7.17;6.57;;;16.30;99.10;;;;;;4995208;28;20654;-95
2021/10/25 11:25:01;;;;;;;6.20;5.70;;;16.30;99.90;;;;;;5008837;28;20637;-94
2021/10/25 11:27:33;;;;;;;10.87;5.50;;;16.80;97.40;;;;;;5000921;28;20644;-94
2021/10/25 11:30:09;;;;;;;6.27;5.40;;;17.20;95.70;;;;;;4999341;28;20679;-96
2021/10/25 11:32:36;;;;;;;6.27;5.33;;;17.40;94.50;;;;;;5001819;28;20699;-95
2021/10/25 11:35:15;;;;;;;5.30;4.90;;;17.60;93.50;;;;;;5000928;28;20653;-96
2021/10/25 11:37:50;;;;;;;5.57;5.07;;;17.80;93.20;;;;;;5003322;28;20665;-95
2021/10/25 11:40:24;;;;;;;5.30;4.80;;;18.20;91.50;;;;;;5001919;28;20633;-95
2021/10/25 11:42:53;;;;;;;6.40;5.17;;;18.30;89.40;;;;;;5000295;28;20679;-96
2021/10/25 11:45:25;;;;;;;5.70;4.30;;;18.40;89.20;;;;;;5006127;28;20617;-96
2021/10/25 11:47:53;;;;;;;4.73;4.33;;;18.40;88.40;;;;;;5000841;28;20641;-95
2021/10/25 11:50:24;;;;;;;4.70;4.23;;;19.00;84.30;;;;;;5004225;28;20640;-96
2021/10/25 11:52:59;;;;;;;4.67;4.37;;;19.30;84.90;;;;;;5001295;28;20665;-96
2021/10/25 11:55:30;;;;;;;7.17;4.40;;;19.40;82.60;;;;;;5005244;28;20613;-96
2021/10/25 11:58:06;;;;;;;4.60;4.10;;;19.50;81.90;;;;;;5006886;28;20617;-96
2021/10/25 12:00:47;;;;;;;4.60;3.87;;;20.00;79.20;;;;;;5006750;28;20641;-96
2021/10/25 12:06:06;;;;;;;4.53;4.13;;;20.20;73.70;;;;;;5036372;23;20665;-96
2021/10/25 12:08:38;;;;;;;7.53;3.90;;;20.70;73.50;;;;;;5006024;28;20629;-96
2021/10/25 12:11:17;;;;;;;4.40;3.83;;;20.70;73.50;;;;;;5007203;28;20629;-96
2021/10/25 12:13:45;;;;;;;4.73;4.33;;;21.10;73.00;;;;;;5006648;28;20620;-96
2021/10/25 12:19:14;;;;;;;3.70;3.40;;;21.80;67.90;;;;;;5013330;28;20652;-96
2021/10/25 12:21:50;;;;;;;2.63;2.43;;;21.90;65.90;;;;;;4989986;28;20637;-96
2021/10/25 12:24:39;;;;;;;2.77;2.57;;;22.40;61.90;;;;;;5006511;28;20633;-96
2021/10/25 12:32:40;;;;;;;2.90;2.63;;;20.80;60.70;;;;;;5016664;23;20660;-96
2021/10/25 12:50:42;;;;;;;3.20;2.40;;;20.10;61.50;;;;;;4980385;28;20668;-95
2021/10/25 12:53:12;;;;;;;3.77;2.50;;;19.70;61.20;;;;;;4990796;28;20624;-94
2021/10/25 12:55:40;;;;;;;2.50;2.30;;;19.60;62.50;;;;;;4989583;28;20676;-95
2021/10/25 12:58:13;;;;;;;7.17;3.63;;;19.80;60.70;;;;;;4986153;28;20626;-95
2021/10/25 13:00:49;;;;;;;3.30;2.60;;;20.00;60.50;;;;;;4965750;28;20718;-96
2021/10/25 13:03:20;;;;;;;3.00;2.70;;;20.20;60.00;;;;;;4973458;28;20625;-96
2021/10/25 13:06:10;;;;;;;2.60;2.40;;;20.20;60.70;;;;;;4971008;28;21184;-94
2021/10/25 13:08:39;;;;;;;2.63;2.43;;;20.30;61.90;;;;;;4966639;28;20720;-95
2021/10/25 13:11:09;;;;;;;2.90;2.70;;;20.40;62.10;;;;;;4962315;28;20663;-94
2021/10/25 13:13:42;;;;;;;3.87;2.80;;;20.20;63.40;;;;;;4960182;28;21135;-95
2021/10/25 13:16:15;;;;;;;4.83;3.10;;;20.20;66.10;;;;;;4957787;28;20717;-95
2021/10/25 13:18:42;;;;;;;5.73;3.30;;;21.40;62.40;;;;;;4955523;28;21013;-94
2021/10/25 13:21:11;;;;;;;6.13;3.10;;;22.40;61.20;;;;;;4962678;28;20642;-94
2021/10/25 13:23:40;;;;;;;3.00;2.67;;;22.90;59.90;;;;;;4960803;28;20693;-95
2021/10/25 13:26:07;;;;;;;5.20;2.63;;;23.30;57.00;;;;;;4961481;28;20641;-93
2021/10/25 13:28:38;;;;;;;2.90;2.23;;;23.20;56.70;;;;;;4955385;28;20662;-95
2021/10/25 13:31:07;;;;;;;2.93;2.27;;;23.80;54.70;;;;;;4962795;28;20737;-95
2021/10/25 13:33:35;;;;;;;2.10;1.90;;;24.10;54.30;;;;;;4955997;28;20634;-94
2021/10/25 13:36:05;;;;;;;2.63;2.00;;;24.00;53.80;;;;;;4959082;28;20642;-94
2021/10/25 13:38:34;;;;;;;5.33;1.70;;;24.20;52.10;;;;;;4955611;28;20688;-95
2021/10/25 13:41:02;;;;;;;2.50;2.30;;;24.60;50.90;;;;;;4954985;28;20664;-95
2021/10/25 13:43:31;;;;;;;3.47;2.40;;;24.90;50.10;;;;;;4953485;28;20642;-94
2021/10/25 13:45:58;;;;;;;2.93;1.70;;;24.90;50.80;;;;;;4954975;28;20706;-95
2021/10/25 13:48:33;;;;;;;2.33;2.07;;;24.90;48.10;;;;;;4953612;28;21056;-96
2021/10/25 13:51:00;;;;;;;2.53;2.17;;;24.80;50.40;;;;;;4954349;28;20749;-95
2021/10/25 13:53:29;;;;;;;3.00;2.10;;;25.20;50.60;;;;;;4959559;28;20659;-94
2021/10/25 13:55:59;;;;;;;2.80;2.27;;;25.60;48.80;;;;;;4960548;28;20735;-95
2021/10/25 13:58:27;;;;;;;3.33;2.40;;;25.20;48.70;;;;;;4963975;28;20673;-96
2021/10/25 14:00:55;;;;;;;2.67;2.17;;;25.70;48.20;;;;;;4961728;28;20774;-94
2021/10/25 14:03:25;;;;;;;3.33;3.03;;;25.40;49.20;;;;;;4956824;28;20639;-94
2021/10/25 14:05:55;;;;;;;4.10;3.10;;;25.40;48.80;;;;;;4958261;28;21392;-96
2021/10/25 14:08:28;;;;;;;3.30;2.57;;;25.90;47.80;;;;;;4955471;28;20641;-96
2021/10/25 14:10:57;;;;;;;3.00;2.63;;;26.10;49.00;;;;;;4959433;28;20669;-94
2021/10/25 14:13:38;;;;;;;3.03;2.73;;;25.90;48.20;;;;;;4956303;28;20689;-93
2021/10/25 14:16:21;;;;;;;2.50;2.30;;;25.60;48.50;;;;;;4957682;28;20613;-95
2021/10/25 14:18:49;;;;;;;3.20;2.90;;;25.80;47.90;;;;;;4974996;28;20698;-95
2021/10/25 14:21:18;;;;;;;2.70;2.50;;;25.40;48.80;;;;;;4967213;28;20734;-95
2021/10/25 14:23:46;;;;;;;2.93;2.50;;;25.50;48.10;;;;;;4962441;28;20618;-95
2021/10/25 14:26:15;;;;;;;1.90;1.70;;;25.90;47.60;;;;;;4955824;28;20758;-93
2021/10/25 14:28:51;;;;;;;1.67;1.57;;;26.40;43.90;;;;;;4970999;28;20721;-96
2021/10/25 14:34:56;;;;;;;2.80;2.00;;;25.50;45.10;;;;;;4977924;28;20685;-95
2021/10/25 14:40:10;;;;;;;3.80;2.10;;;25.60;44.50;;;;;;4974114;28;20638;-96
2021/10/25 14:45:33;;;;;;;2.40;1.60;;;24.70;43.50;;;;;;4975425;28;20621;-94
2021/10/25 14:53:26;;;;;;;1.80;1.53;;;21.40;46.10;;;;;;4915742;29;20609;-95
2021/10/25 14:56:04;;;;;;;1.57;1.40;;;20.90;54.10;;;;;;4955485;28;21053;-95
2021/10/25 14:58:37;;;;;;;2.13;1.93;;;20.20;50.40;;;;;;4971239;28;20720;-94
2021/10/25 15:01:23;;;;;;;2.07;1.70;;;19.50;51.40;;;;;;4967785;28;20678;-93
2021/10/25 15:03:52;;;;;;;2.50;1.60;;;19.10;55.60;;;;;;4955615;28;20722;-94
2021/10/25 15:06:19;;;;;;;2.63;1.90;;;18.70;60.80;;;;;;4953665;28;20665;-93
2021/10/25 15:08:47;;;;;;;2.00;1.80;;;18.40;63.00;;;;;;4953869;28;20686;-93
2021/10/25 15:11:14;;;;;;;3.60;1.90;;;17.80;72.30;;;;;;4956849;28;20736;-93
2021/10/25 15:13:43;;;;;;;4.13;1.77;;;17.30;79.70;;;;;;4955468;28;20642;-93
2021/10/25 15:16:11;;;;;;;3.13;2.10;;;16.80;89.40;;;;;;4956280;28;20632;-93
2021/10/25 15:18:41;;;;;;;2.23;1.50;;;16.40;93.60;;;;;;4951304;28;20738;-93
2021/10/25 15:21:08;;;;;;;3.70;1.77;;;16.10;95.60;;;;;;4950857;28;20621;-93
2021/10/25 15:23:36;;;;;;;2.07;1.30;;;15.90;98.10;;;;;;4963882;28;20676;-93
2021/10/25 15:26:05;;;;;;;3.00;1.60;;;15.50;99.90;;;;;;4953845;28;20971;-93
2021/10/25 15:28:32;;;;;;;2.40;2.10;;;15.40;99.90;;;;;;4968572;28;20684;-94
2021/10/25 15:31:15;;;;;;;4.10;2.20;;;15.30;99.90;;;;;;4964873;28;20629;-94
2021/10/25 15:33:46;;;;;;;2.13;1.83;;;15.40;99.90;;;;;;4966945;28;20657;-94
2021/10/25 15:36:15;;;;;;;4.40;2.87;;;15.70;99.90;;;;;;4961740;28;20641;-93
2021/10/25 15:38:45;;;;;;;5.57;2.83;;;15.40;99.90;;;;;;4958981;28;20730;-93
2021/10/25 15:41:12;;;;;;;4.03;3.57;;;15.10;99.90;;;;;;4970622;28;20679;-93
2021/10/25 15:43:39;;;;;;;4.40;3.30;;;14.80;99.90;;;;;;4976559;28;20629;-94
2021/10/25 15:46:07;;;;;;;4.93;3.53;;;14.60;99.90;;;;;;4973658;28;20614;-94
2021/10/25 15:48:34;;;;;;;4.50;3.40;;;14.30;99.90;;;;;;4974260;28;20645;-94
2021/10/25 15:51:03;;;;;;;8.03;3.40;;;14.20;99.90;;;;;;4959375;28;20651;-94
2021/10/25 15:53:35;;;;;;;6.43;3.73;;;14.10;99.90;;;;;;4960106;28;20666;-93
2021/10/25 15:56:03;;;;;;;4.57;3.73;;;13.90;99.90;;;;;;4965233;28;20645;-96
2021/10/25 15:58:35;;;;;;;5.43;3.33;;;13.90;99.90;;;;;;4957448;28;20710;-95
2021/10/25 16:01:03;;;;;;;5.73;3.30;;;13.90;99.90;;;;;;4959643;28;20658;-95
2021/10/25 16:03:32;;;;;;;3.70;3.20;;;13.80;99.90;;;;;;4958220;28;20737;-95
2021/10/25 16:06:04;;;;;;;6.23;4.20;;;13.70;99.90;;;;;;4969399;28;20641;-96
2021/10/25 16:08:32;;;;;;;6.87;3.40;;;13.60;99.90;;;;;;4957462;28;20666;-95
2021/10/25 16:11:02;;;;;;;6.63;4.63;;;13.50;99.90;;;;;;4965336;28;20630;-95
2021/10/25 16:13:32;;;;;;;6.80;4.20;;;13.30;99.90;;;;;;4960492;28;20645;-95
2021/10/25 16:16:00;;;;;;;5.13;3.80;;;13.20;99.90;;;;;;4970177;28;21004;-96
2021/10/25 16:18:27;;;;;;;3.53;3.20;;;13.10;99.90;;;;;;4962927;28;20692;-94
2021/10/25 16:21:14;;;;;;;4.07;3.67;;;13.00;99.90;;;;;;4972687;28;20629;-96
2021/10/25 16:23:43;;;;;;;4.47;3.20;;;13.00;99.90;;;;;;4966281;28;20688;-96
2021/10/25 16:26:10;;;;;;;8.03;4.17;;;12.90;99.90;;;;;;4961721;28;20644;-95
2021/10/25 16:28:38;;;;;;;5.17;3.73;;;12.80;99.90;;;;;;4965081;28;20686;-95
2021/10/25 16:31:06;;;;;;;8.13;5.70;;;12.60;99.90;;;;;;4964206;28;21191;-95
2021/10/25 16:33:36;;;;;;;32.27;19.87;;;12.40;99.90;;;;;;4962013;28;21077;-95
2021/10/25 16:36:04;;;;;;;32.67;20.13;;;12.30;99.90;;;;;;4959067;28;20993;-96
2021/10/25 16:38:33;;;;;;;25.40;15.60;;;12.30;99.90;;;;;;4964215;28;20677;-95
2021/10/25 16:41:08;;;;;;;19.13;12.43;;;12.20;99.90;;;;;;4959354;28;20687;-96
2021/10/25 16:43:35;;;;;;;12.97;8.67;;;12.00;99.90;;;;;;4964317;28;20630;-95
2021/10/25 16:46:05;;;;;;;7.17;5.00;;;12.00;99.90;;;;;;4957925;28;20656;-95
2021/10/25 16:48:37;;;;;;;11.00;6.93;;;11.80;99.90;;;;;;4962233;28;20665;-95
2021/10/25 16:51:11;;;;;;;6.80;5.50;;;11.80;99.90;;;;;;4956576;28;20654;-95
2021/10/25 16:54:00;;;;;;;6.40;5.00;;;11.70;99.90;;;;;;4956136;28;20686;-94
2021/10/25 17:03:10;;;;;;;6.60;4.20;;;11.60;99.90;;;;;;4959792;28;20594;-94
2021/10/25 17:11:12;;;;;;;7.97;4.33;;;11.40;99.90;;;;;;4958027;28;21018;-95
2021/10/25 17:13:40;;;;;;;5.80;4.23;;;11.40;99.90;;;;;;4957844;28;20669;-94
2021/10/25 17:16:07;;;;;;;9.57;4.20;;;11.30;99.90;;;;;;4960343;28;21270;-95
2021/10/25 17:18:38;;;;;;;5.70;4.60;;;11.20;99.90;;;;;;4958708;28;20729;-95
2021/10/25 17:21:14;;;;;;;6.73;4.93;;;11.20;99.90;;;;;;4956731;28;21012;-94
2021/10/25 17:23:44;;;;;;;9.90;4.50;;;11.10;99.90;;;;;;4950968;28;20630;-96
2021/10/25 17:26:23;;;;;;;9.73;4.93;;;11.10;99.90;;;;;;4957496;28;20631;-95
2021/10/25 17:29:20;;;;;;;10.80;5.30;;;11.00;99.90;;;;;;4989485;23;20694;-94
2021/10/25 17:31:50;;;;;;;6.33;4.37;;;10.90;99.90;;;;;;4955214;28;20696;-94
2021/10/25 17:34:24;;;;;;;4.73;3.90;;;10.90;99.90;;;;;;4957572;28;20666;-92
2021/10/25 17:36:53;;;;;;;6.30;4.40;;;10.70;99.90;;;;;;4952782;28;20642;-93
2021/10/25 17:44:39;;;;;;;6.30;4.70;;;10.60;99.90;;;;;;4979413;28;21066;-95
2021/10/25 17:47:53;;;;;;;5.70;5.13;;;10.60;99.90;;;;;;4988140;28;20629;-95
2021/10/25 17:50:33;;;;;;;5.63;4.80;;;10.50;99.90;;;;;;4986724;28;20613;-95
2021/10/25 17:53:01;;;;;;;14.57;6.00;;;10.50;99.90;;;;;;4984928;28;20661;-96
2021/10/25 17:55:31;;;;;;;7.40;5.30;;;10.40;99.90;;;;;;4983066;28;20724;-95
2021/10/25 17:58:00;;;;;;;5.60;5.10;;;10.30;99.90;;;;;;4983750;28;21271;-96
2021/10/25 18:00:36;;;;;;;8.70;5.47;;;10.20;99.90;;;;;;4984550;28;20622;-94
2021/10/25 18:03:08;;;;;;;6.80;5.40;;;10.20;99.90;;;;;;4989908;28;21245;-94
2021/10/25 18:05:37;;;;;;;6.87;5.30;;;10.00;99.90;;;;;;4983325;28;20726;-94
2021/10/25 18:08:10;;;;;;;6.53;5.30;;;10.00;99.90;;;;;;4977360;28;20640;-93
2021/10/25 18:10:40;;;;;;;7.30;4.90;;;10.00;99.90;;;;;;4975579;28;20714;-94
2021/10/25 18:13:13;;;;;;;5.90;5.37;;;9.90;99.90;;;;;;4975306;28;21580;-94
2021/10/25 18:15:51;;;;;;;8.27;5.87;;;9.80;99.90;;;;;;4980247;28;21201;-94
2021/10/25 18:18:20;;;;;;;8.37;5.50;;;9.70;99.90;;;;;;4977839;28;20661;-94
2021/10/25 18:20:57;;;;;;;6.63;6.00;;;9.60;99.90;;;;;;4980733;28;20659;-94
2021/10/25 18:23:32;;;;;;;7.83;6.70;;;9.60;99.90;;;;;;4975499;28;20698;-94
2021/10/25 18:26:09;;;;;;;5.93;5.33;;;9.50;99.90;;;;;;4982145;28;20621;-95
2021/10/25 18:28:45;;;;;;;6.23;5.40;;;9.50;99.90;;;;;;4974417;28;20625;-94
2021/10/25 18:31:19;;;;;;;6.97;6.20;;;9.40;99.90;;;;;;4988639;28;20629;-93
2021/10/25 18:33:59;;;;;;;7.93;6.10;;;9.30;99.90;;;;;;4999554;28;20655;-94
2021/10/25 18:36:42;;;;;;;6.37;5.63;;;9.30;99.90;;;;;;4981935;28;21682;-94
2021/10/25 18:39:11;;;;;;;6.90;6.03;;;9.30;99.90;;;;;;4990779;28;20670;-93
2021/10/25 18:41:41;;;;;;;8.33;6.87;;;9.30;99.90;;;;;;4997584;28;20725;-93
2021/10/25 18:44:22;;;;;;;9.43;7.13;;;9.30;99.90;;;;;;4988263;28;20777;-96
2021/10/25 18:53:01;;;;;;;6.63;6.03;;;9.10;99.90;;;;;;4996451;28;20741;-94
2021/10/25 18:55:36;;;;;;;6.80;5.90;;;9.00;99.90;;;;;;4997798;28;20647;-94
2021/10/25 18:58:13;;;;;;;8.50;5.43;;;9.00;99.90;;;;;;4989340;28;20661;-94
2021/10/25 19:00:41;;;;;;;6.20;5.27;;;9.00;99.90;;;;;;4981498;28;20740;-93
2021/10/25 19:03:17;;;;;;;4.60;4.20;;;8.90;99.90;;;;;;4978851;28;20661;-93
2021/10/25 19:06:00;;;;;;;6.00;4.20;;;8.90;99.90;;;;;;4991753;28;20716;-94
2021/10/25 19:08:29;;;;;;;5.03;4.27;;;8.80;99.90;;;;;;4984903;28;20629;-92
2021/10/25 19:10:58;;;;;;;5.10;4.60;;;8.80;99.90;;;;;;4972360;28;20661;-93
2021/10/25 19:13:33;;;;;;;10.73;4.60;;;8.70;99.90;;;;;;4988861;28;20665;-94
2021/10/25 19:16:00;;;;;;;4.73;3.40;;;8.70;99.90;;;;;;4989710;28;20629;-94
2021/10/25 19:26:21;;;;;;;4.27;3.87;;;8.50;99.90;;;;;;4994990;28;20653;-94
2021/10/25 19:28:50;;;;;;;5.80;4.10;;;8.50;99.90;;;;;;4984921;28;20617;-94
2021/10/25 19:50:10;;;;;;;5.57;5.07;;;8.10;99.90;;;;;;5080942;23;20669;-95
2021/10/25 21:31:33;;;;;;;10.80;9.03;;;7.20;99.90;;;;;;4986848;28;20665;-95
2021/10/25 21:34:01;;;;;;;9.43;8.53;;;7.20;99.90;;;;;;4989526;28;20645;-96
2021/10/25 21:37:03;;;;;;;9.23;8.57;;;7.20;99.90;;;;;;4986515;28;21147;-96
2021/10/25 21:39:35;;;;;;;9.77;8.37;;;7.20;99.90;;;;;;4976941;28;20680;-96
2021/10/25 21:47:12;;;;;;;8.90;8.10;;;7.00;99.90;;;;;;4973797;28;20693;-94
2021/10/25 21:49:53;;;;;;;9.70;8.83;;;7.00;99.90;;;;;;4986733;28;21005;-96
2021/10/25 21:52:21;;;;;;;8.50;7.70;;;7.00;99.90;;;;;;4998957;28;20714;-96
2021/10/25 21:54:50;;;;;;;7.20;6.70;;;7.00;99.90;;;;;;4985181;28;21141;-95
2021/10/25 21:58:00;;;;;;;9.03;8.20;;;7.00;99.90;;;;;;4965242;28;20659;-96
2021/10/25 22:00:31;;;;;;;8.80;8.00;;;7.00;99.90;;;;;;4967476;28;21079;-96
2021/10/25 22:03:25;;;;;;;8.73;8.03;;;7.00;99.90;;;;;;4961720;28;20777;-96
2021/10/25 22:05:57;;;;;;;7.93;7.23;;;6.90;99.90;;;;;;4960613;28;20641;-95
2021/10/25 22:08:36;;;;;;;8.37;7.77;;;7.00;99.90;;;;;;4962317;28;20630;-94
2021/10/25 22:11:06;;;;;;;8.77;7.77;;;7.00;99.90;;;;;;4966147;28;21397;-94
2021/10/25 22:17:15;;;;;;;8.40;7.60;;;6.80;99.90;;;;;;4975793;28;20612;-95
2021/10/25 22:30:17;;;;;;;8.10;7.37;;;6.90;99.90;;;;;;5288326;23;20677;-96
2021/10/25 22:41:04;;;;;;;8.80;8.00;;;7.10;99.90;;;;;;5378993;23;20666;-96
2021/10/25 22:59:16;;;;;;;9.03;8.23;;;7.60;99.90;;;;;;4992584;28;20689;-96
2021/10/25 23:01:49;;;;;;;10.60;7.80;;;7.80;99.90;;;;;;4984275;28;20633;-96
2021/10/25 23:04:17;;;;;;;7.97;7.37;;;7.80;99.90;;;;;;4979564;28;20633;-94
2021/10/25 23:06:51;;;;;;;10.53;8.00;;;7.80;99.90;;;;;;4990221;28;20633;-94
2021/10/25 23:09:20;;;;;;;8.43;7.63;;;7.80;99.90;;;;;;4962881;28;20748;-96
2021/10/25 23:11:48;;;;;;;9.23;7.83;;;7.80;99.90;;;;;;4967115;28;20741;-95
2021/10/25 23:14:17;;;;;;;8.00;7.30;;;7.90;99.90;;;;;;4969701;28;20641;-95
2021/10/25 23:19:39;;;;;;;7.90;7.30;;;7.90;99.90;;;;;;4963661;28;20650;-96
2021/10/25 23:22:06;;;;;;;8.33;7.63;;;7.90;99.90;;;;;;4960092;28;20630;-95
2021/10/25 23:24:35;;;;;;;7.90;7.20;;;7.90;99.90;;;;;;4964373;28;20662;-96
2021/10/25 23:27:05;;;;;;;7.70;6.97;;;7.80;99.90;;;;;;4973008;28;20992;-96
2021/10/25 23:29:45;;;;;;;8.40;7.57;;;7.80;99.90;;;;;;4961220;28;20721;-96
2021/10/25 23:32:13;;;;;;;8.27;7.07;;;7.80;99.90;;;;;;4959526;28;20650;-96
2021/10/25 23:34:42;;;;;;;9.23;8.33;;;7.80;99.90;;;;;;4965425;28;21265;-96
2021/10/25 23:37:15;;;;;;;8.00;7.30;;;7.80;99.90;;;;;;4959972;28;20661;-95
2021/10/25 23:42:30;;;;;;;8.17;7.27;;;7.70;99.90;;;;;;4972980;28;20602;-96
2021/10/25 23:45:02;;;;;;;9.03;8.17;;;7.60;99.90;;;;;;4987645;28;20637;-96
2021/10/25 23:47:32;;;;;;;9.60;8.70;;;7.60;99.90;;;;;;4971809;28;20662;-96
2021/10/25 23:49:59;;;;;;;9.37;8.40;;;7.60;99.90;;;;;;4965846;28;20729;-96
2021/10/25 23:58:38;;;;;;;8.23;7.53;;;7.50;99.90;;;;;;5120856;27;24542;-95
